Time;durP1;ratioP1;P1;durP2;ratioP2;P2;SDS_P1;SDS_P2;PMS_P1;PMS_P2;Temp;Humidity;BMP_temperature;BMP_pressure;BME280_temperature;BME280_humidity;BME280_pressure;Samples;Min_cycle;Max_cycle;Signal;HPM_P1;HPM_P2
2022/09/27 00:01:43;;;;;;;0.00;0.00;;;11.40;99.90;;;;;;5087890;28;20048;-81
2022/09/27 00:04:10;;;;;;;0.00;0.00;;;11.40;99.90;;;;;;5084113;28;20427;-82
2022/09/27 00:06:37;;;;;;;0.00;0.00;;;11.40;99.90;;;;;;5078727;28;20050;-82
2022/09/27 00:09:07;;;;;;;0.00;0.00;;;11.40;99.90;;;;;;5077438;28;20036;-81
2022/09/27 00:11:36;;;;;;;0.00;0.00;;;11.50;99.90;;;;;;5081026;28;20048;-81
2022/09/27 00:14:03;;;;;;;0.00;0.00;;;11.50;99.90;;;;;;5078422;28;20575;-82
2022/09/27 00:16:33;;;;;;;0.00;0.00;;;11.60;99.90;;;;;;5080393;28;20040;-80
2022/09/27 00:19:01;;;;;;;0.00;0.00;;;11.60;99.90;;;;;;5079456;28;20048;-80
2022/09/27 00:21:29;;;;;;;0.00;0.00;;;;;;;;;;5081396;28;20036;-82
2022/09/27 00:23:57;;;;;;;0.00;0.00;;;11.60;99.90;;;;;;5087770;28;20040;-82
2022/09/27 00:26:25;;;;;;;0.00;0.00;;;11.60;99.90;;;;;;5078555;28;20129;-84
2022/09/27 00:28:52;;;;;;;0.00;0.00;;;11.70;99.90;;;;;;5075093;28;20119;-82
2022/09/27 00:31:21;;;;;;;0.10;0.10;;;11.70;99.90;;;;;;5074768;28;20048;-81
2022/09/27 00:33:51;;;;;;;0.00;0.00;;;11.70;99.90;;;;;;5078073;28;20045;-81
2022/09/27 00:36:19;;;;;;;0.00;0.00;;;11.70;99.90;;;;;;5077577;28;20488;-82
2022/09/27 00:38:46;;;;;;;0.00;0.00;;;11.70;99.90;;;;;;5073989;28;20196;-81
2022/09/27 00:41:15;;;;;;;0.00;0.00;;;11.80;99.90;;;;;;5077971;28;20044;-81
2022/09/27 00:43:46;;;;;;;0.00;0.00;;;11.70;99.90;;;;;;5076759;28;20046;-81
2022/09/27 00:46:17;;;;;;;0.00;0.00;;;11.70;99.90;;;;;;5079363;28;20178;-83
2022/09/27 00:48:46;;;;;;;0.00;0.00;;;11.70;99.90;;;;;;5080034;28;20045;-80
2022/09/27 00:51:14;;;;;;;0.00;0.00;;;11.70;99.90;;;;;;5076100;28;20051;-82
2022/09/27 00:53:45;;;;;;;0.00;0.00;;;11.80;99.90;;;;;;5079603;28;20063;-82
2022/09/27 00:56:17;;;;;;;0.00;0.00;;;11.70;99.90;;;;;;5072823;28;20044;-80
2022/09/27 00:58:49;;;;;;;0.00;0.00;;;11.60;99.90;;;;;;5075034;28;20524;-81
2022/09/27 01:01:16;;;;;;;0.00;0.00;;;11.70;99.90;;;;;;5079385;28;20118;-80
2022/09/27 01:03:47;;;;;;;0.03;0.03;;;11.70;99.90;;;;;;5077783;28;20041;-81
2022/09/27 01:06:18;;;;;;;0.00;0.00;;;11.70;99.90;;;;;;5078084;28;20469;-80
2022/09/27 01:08:45;;;;;;;0.00;0.00;;;11.60;99.90;;;;;;5073263;28;20064;-82
2022/09/27 01:11:19;;;;;;;0.05;0.05;;;11.70;99.90;;;;;;5075796;28;20127;-82
2022/09/27 01:14:03;;;;;;;0.00;0.00;;;11.60;99.90;;;;;;5074533;28;20420;-80
2022/09/27 01:16:40;;;;;;;0.00;0.00;;;11.70;99.90;;;;;;5077930;28;20051;-80
2022/09/27 01:19:18;;;;;;;0.00;0.00;;;11.70;99.90;;;;;;5074467;28;20048;-82
2022/09/27 01:21:52;;;;;;;0.00;0.00;;;11.60;99.90;;;;;;5077160;28;20131;-82
2022/09/27 01:24:51;;;;;;;0.00;0.00;;;11.70;99.90;;;;;;5084948;28;20046;-83
2022/09/27 01:28:08;;;;;;;0.00;0.00;;;11.70;99.90;;;;;;5076756;28;20399;-81
2022/09/27 01:30:46;;;;;;;0.00;0.00;;;11.70;99.90;;;;;;5075069;28;20048;-81
2022/09/27 01:33:22;;;;;;;0.00;0.00;;;11.70;99.90;;;;;;5082401;28;20115;-82
2022/09/27 01:36:05;;;;;;;0.00;0.00;;;11.70;99.90;;;;;;5073318;28;20194;-80
2022/09/27 01:38:41;;;;;;;0.00;0.00;;;11.60;99.90;;;;;;5074563;28;20568;-83
2022/09/27 01:41:19;;;;;;;0.00;0.00;;;11.70;99.90;;;;;;5079476;28;20131;-81
2022/09/27 01:43:53;;;;;;;0.00;0.00;;;11.70;99.90;;;;;;5077358;28;20060;-82
2022/09/27 01:46:24;;;;;;;0.00;0.00;;;11.60;99.90;;;;;;5082926;28;20067;-80
2022/09/27 01:48:53;;;;;;;0.00;0.00;;;11.60;99.90;;;;;;5075377;28;20435;-80
2022/09/27 01:51:26;;;;;;;0.00;0.00;;;11.60;99.90;;;;;;5078148;28;20044;-83
2022/09/27 01:53:59;;;;;;;0.00;0.00;;;11.50;99.90;;;;;;5079364;28;20040;-81
2022/09/27 01:56:32;;;;;;;0.00;0.00;;;11.50;99.90;;;;;;5083070;28;20032;-81
2022/09/27 01:59:06;;;;;;;0.00;0.00;;;11.50;99.90;;;;;;5086637;28;20043;-82
2022/09/27 02:01:37;;;;;;;0.00;0.00;;;11.40;99.90;;;;;;5080835;28;20128;-82
2022/09/27 02:04:07;;;;;;;0.00;0.00;;;11.30;99.90;;;;;;5079893;28;20028;-82
2022/09/27 02:06:38;;;;;;;0.00;0.00;;;11.30;99.90;;;;;;5076226;28;20518;-83
2022/09/27 02:09:11;;;;;;;0.00;0.00;;;11.30;99.90;;;;;;5085847;28;20044;-81
2022/09/27 02:11:41;;;;;;;0.00;0.00;;;11.40;99.90;;;;;;5081477;28;20044;-83
2022/09/27 02:14:10;;;;;;;;;;;11.40;99.90;;;;;;5077670;28;20044;-81
2022/09/27 02:16:47;;;;;;;0.00;0.00;;;11.40;99.90;;;;;;5079734;28;19928;-83
2022/09/27 02:19:23;;;;;;;0.00;0.00;;;11.30;99.90;;;;;;5078054;28;20335;-81
2022/09/27 02:21:59;;;;;;;0.00;0.00;;;11.30;99.90;;;;;;5090720;28;20423;-81
2022/09/27 02:24:35;;;;;;;0.00;0.00;;;11.40;99.90;;;;;;5085583;28;20070;-81
2022/09/27 02:27:11;;;;;;;0.00;0.00;;;11.40;99.90;;;;;;5082495;28;20044;-84
2022/09/27 02:29:42;;;;;;;0.05;0.05;;;11.50;99.90;;;;;;5083101;28;20068;-84
2022/09/27 02:32:10;;;;;;;0.00;0.00;;;11.50;99.90;;;;;;5084085;28;20050;-83
2022/09/27 02:34:39;;;;;;;0.00;0.00;;;11.40;99.90;;;;;;5080784;28;20515;-80
2022/09/27 02:37:06;;;;;;;0.00;0.00;;;11.40;99.90;;;;;;5080213;28;20036;-82
2022/09/27 02:39:33;;;;;;;0.00;0.00;;;11.30;99.90;;;;;;5082207;28;20514;-81
2022/09/27 02:42:01;;;;;;;0.10;0.10;;;11.20;99.90;;;;;;5083419;28;20039;-80
2022/09/27 02:44:28;;;;;;;0.08;0.08;;;11.20;99.90;;;;;;5076612;28;20457;-80
2022/09/27 02:47:08;;;;;;;0.03;0.03;;;11.10;99.90;;;;;;5083724;28;20461;-83
2022/09/27 02:49:47;;;;;;;0.00;0.00;;;11.10;99.90;;;;;;5075168;28;20040;-82
2022/09/27 02:52:25;;;;;;;0.10;0.10;;;11.10;99.90;;;;;;5083751;28;20135;-79
2022/09/27 02:55:05;;;;;;;0.10;0.10;;;10.80;99.90;;;;;;5086040;28;20083;-81
2022/09/27 02:57:40;;;;;;;0.00;0.00;;;10.80;99.90;;;;;;5086046;28;20040;-79
2022/09/27 03:00:11;;;;;;;0.10;0.10;;;10.80;99.90;;;;;;5079305;28;20047;-82
2022/09/27 03:02:48;;;;;;;0.10;0.10;;;10.90;99.90;;;;;;5075564;28;20079;-81
2022/09/27 03:05:20;;;;;;;0.10;0.10;;;11.00;99.90;;;;;;5074601;28;20048;-82
2022/09/27 03:07:47;;;;;;;0.00;0.00;;;10.90;99.90;;;;;;5082518;28;20050;-82
2022/09/27 03:10:19;;;;;;;0.03;0.03;;;10.90;99.90;;;;;;5080058;28;20414;-80
2022/09/27 03:12:46;;;;;;;0.10;0.10;;;10.90;99.90;;;;;;5082610;28;20043;-83
2022/09/27 03:15:13;;;;;;;0.10;0.10;;;10.90;99.90;;;;;;5081540;28;20131;-81
2022/09/27 03:17:40;;;;;;;0.00;0.00;;;10.90;99.90;;;;;;5077035;28;20123;-84
2022/09/27 03:20:07;;;;;;;0.10;0.10;;;10.90;99.90;;;;;;5078385;28;20052;-83
2022/09/27 03:22:37;;;;;;;0.10;0.10;;;10.80;99.90;;;;;;5082829;28;20104;-78
2022/09/27 03:25:05;;;;;;;0.10;0.10;;;10.80;99.90;;;;;;5075548;28;20039;-80
2022/09/27 03:27:32;;;;;;;0.00;0.00;;;10.80;99.90;;;;;;5081848;28;20177;-83
2022/09/27 03:29:58;;;;;;;0.00;0.00;;;10.90;99.90;;;;;;5086061;28;20053;-83
2022/09/27 03:32:25;;;;;;;0.00;0.00;;;10.80;99.90;;;;;;5077485;28;20067;-83
2022/09/27 03:34:54;;;;;;;0.10;0.10;;;10.80;99.90;;;;;;5083565;28;20154;-83
2022/09/27 03:39:59;;;;;;;0.00;0.00;;;10.80;99.90;;;;;;5056180;28;22162;-81
2022/09/27 03:42:25;;;;;;;0.00;0.00;;;10.80;99.90;;;;;;5040224;28;20068;-82
2022/09/27 03:44:52;;;;;;;0.10;0.10;;;10.90;99.90;;;;;;5050464;28;20052;-81
2022/09/27 03:47:19;;;;;;;0.00;0.00;;;10.90;99.90;;;;;;5046465;28;20043;-82
2022/09/27 03:49:46;;;;;;;0.00;0.00;;;10.90;99.90;;;;;;5048025;28;20057;-82
2022/09/27 03:52:13;;;;;;;0.00;0.00;;;10.90;99.90;;;;;;5065586;28;20049;-81
2022/09/27 03:54:40;;;;;;;0.00;0.00;;;10.80;99.90;;;;;;5057089;28;20049;-82
2022/09/27 03:57:08;;;;;;;0.00;0.00;;;10.90;99.90;;;;;;5061403;28;20074;-82
2022/09/27 03:59:35;;;;;;;0.00;0.00;;;;;;;;;;5044821;28;20044;-81
2022/09/27 04:02:02;;;;;;;0.00;0.00;;;10.90;99.90;;;;;;5058870;28;20048;-83
2022/09/27 04:04:29;;;;;;;0.10;0.10;;;10.90;99.90;;;;;;5079143;28;20036;-82
2022/09/27 04:06:57;;;;;;;0.00;0.00;;;10.80;99.90;;;;;;5050560;28;20052;-82
2022/09/27 04:09:24;;;;;;;0.00;0.00;;;10.80;99.90;;;;;;5047642;28;20047;-82
2022/09/27 04:11:51;;;;;;;0.00;0.00;;;;;;;;;;5066757;28;20044;-83
2022/09/27 04:14:19;;;;;;;0.00;0.00;;;10.90;99.90;;;;;;5048497;28;20094;-81
2022/09/27 04:16:46;;;;;;;0.00;0.00;;;11.00;99.90;;;;;;5063248;28;20041;-83
2022/09/27 04:19:13;;;;;;;0.00;0.00;;;11.00;99.90;;;;;;5067605;28;20059;-83
2022/09/27 04:21:40;;;;;;;0.00;0.00;;;11.10;99.90;;;;;;5066966;28;20045;-84
2022/09/27 04:24:07;;;;;;;0.10;0.10;;;11.10;99.90;;;;;;5069834;28;20160;-82
2022/09/27 04:26:36;;;;;;;0.00;0.00;;;11.10;99.90;;;;;;5068479;28;20047;-82
2022/09/27 04:29:03;;;;;;;0.10;0.10;;;11.00;99.90;;;;;;5069385;28;20532;-82
2022/09/27 04:31:31;;;;;;;0.10;0.10;;;11.00;99.90;;;;;;5063846;28;20071;-83
2022/09/27 04:33:58;;;;;;;0.00;0.00;;;10.80;99.90;;;;;;5064584;28;20048;-83
2022/09/27 04:36:25;;;;;;;0.00;0.00;;;10.80;99.90;;;;;;5068960;28;20036;-82
2022/09/27 04:38:53;;;;;;;0.00;0.00;;;10.80;99.90;;;;;;5074518;28;20583;-82
2022/09/27 04:41:22;;;;;;;0.10;0.10;;;10.70;99.90;;;;;;5071498;28;20115;-83
2022/09/27 04:43:49;;;;;;;0.05;0.05;;;10.70;99.90;;;;;;5068786;28;20480;-82
2022/09/27 04:46:23;;;;;;;0.10;0.10;;;10.70;99.90;;;;;;5048355;28;20240;-82
2022/09/27 04:48:51;;;;;;;0.10;0.10;;;10.70;99.90;;;;;;5068836;28;20048;-83
2022/09/27 04:51:18;;;;;;;0.10;0.10;;;10.50;99.90;;;;;;5062985;28;20037;-83
2022/09/27 04:53:46;;;;;;;0.00;0.00;;;10.50;99.90;;;;;;5065731;28;20045;-82
2022/09/27 04:56:14;;;;;;;0.10;0.10;;;10.50;99.90;;;;;;5049787;28;20037;-82
2022/09/27 04:58:41;;;;;;;0.10;0.10;;;10.50;99.90;;;;;;5066796;28;20108;-82
2022/09/27 05:01:08;;;;;;;0.10;0.10;;;10.60;99.90;;;;;;5070176;28;20071;-82
2022/09/27 05:03:35;;;;;;;0.00;0.00;;;10.60;99.90;;;;;;5067113;28;20045;-82
2022/09/27 05:06:03;;;;;;;0.00;0.00;;;10.60;99.90;;;;;;5037510;28;20039;-83
2022/09/27 05:08:30;;;;;;;0.00;0.00;;;10.40;99.90;;;;;;5070234;28;20504;-81
2022/09/27 05:10:57;;;;;;;0.00;0.00;;;10.40;99.90;;;;;;5050429;28;20489;-82
2022/09/27 05:13:24;;;;;;;0.10;0.10;;;10.50;99.90;;;;;;5048305;28;20045;-82
2022/09/27 05:15:51;;;;;;;0.10;0.10;;;10.50;99.90;;;;;;5060757;28;20051;-82
2022/09/27 05:18:18;;;;;;;0.00;0.00;;;10.50;99.90;;;;;;5066180;28;20036;-83
2022/09/27 05:20:45;;;;;;;0.10;0.10;;;10.60;99.90;;;;;;5055334;28;20063;-82
2022/09/27 05:23:14;;;;;;;0.10;0.10;;;10.40;99.90;;;;;;5052055;28;20149;-82
2022/09/27 05:25:41;;;;;;;0.10;0.10;;;10.40;99.90;;;;;;5052553;28;20064;-81
2022/09/27 05:28:08;;;;;;;0.00;0.00;;;10.50;99.90;;;;;;5072429;28;20489;-82
2022/09/27 05:30:35;;;;;;;0.00;0.00;;;10.50;99.90;;;;;;5053614;28;20043;-81
2022/09/27 05:33:02;;;;;;;0.10;0.10;;;10.40;99.90;;;;;;5061037;28;20075;-82
2022/09/27 05:35:29;;;;;;;0.10;0.10;;;10.40;99.90;;;;;;5058365;28;20155;-83
2022/09/27 05:37:57;;;;;;;0.00;0.00;;;10.40;99.90;;;;;;5061805;28;20050;-80
2022/09/27 05:40:26;;;;;;;0.00;0.00;;;10.30;99.90;;;;;;5047647;28;20060;-81
2022/09/27 05:43:07;;;;;;;0.08;0.08;;;10.50;99.90;;;;;;5064519;28;20041;-81
2022/09/27 05:45:34;;;;;;;0.10;0.10;;;10.30;99.90;;;;;;5044606;28;20071;-82
2022/09/27 05:48:01;;;;;;;0.00;0.00;;;10.40;99.90;;;;;;5053414;28;20049;-81
2022/09/27 05:50:28;;;;;;;0.00;0.00;;;10.40;99.90;;;;;;5069019;28;20400;-82
2022/09/27 05:52:55;;;;;;;0.10;0.10;;;10.40;99.90;;;;;;5048230;28;20127;-82
2022/09/27 05:55:22;;;;;;;0.00;0.00;;;10.20;99.90;;;;;;5073452;28;20048;-82
2022/09/27 05:57:59;;;;;;;0.00;0.00;;;10.20;99.90;;;;;;5049477;28;20059;-81
2022/09/27 06:00:27;;;;;;;0.10;0.10;;;10.30;99.90;;;;;;5045037;28;20067;-81
2022/09/27 06:02:55;;;;;;;0.10;0.10;;;10.20;99.90;;;;;;5054035;28;20794;-81
2022/09/27 06:05:23;;;;;;;0.10;0.10;;;10.30;99.90;;;;;;5069846;28;20036;-81
2022/09/27 06:07:49;;;;;;;0.10;0.10;;;10.20;99.90;;;;;;5072434;28;20049;-82
2022/09/27 06:10:17;;;;;;;0.10;0.10;;;10.20;99.90;;;;;;5056035;28;20420;-81
2022/09/27 06:12:45;;;;;;;0.00;0.00;;;10.20;99.90;;;;;;5066737;28;20412;-82
2022/09/27 06:15:13;;;;;;;0.10;0.10;;;10.10;99.90;;;;;;5068634;28;20071;-81
2022/09/27 06:17:40;;;;;;;0.08;0.08;;;10.30;99.90;;;;;;5053571;28;20512;-82
2022/09/27 06:20:08;;;;;;;0.10;0.10;;;10.30;99.90;;;;;;5062431;28;20039;-82
2022/09/27 06:22:35;;;;;;;0.10;0.10;;;10.10;99.90;;;;;;5046513;28;20049;-80
2022/09/27 06:25:03;;;;;;;0.03;0.03;;;10.20;99.90;;;;;;5045518;28;20036;-82
2022/09/27 06:27:29;;;;;;;0.00;0.00;;;10.20;99.90;;;;;;5053939;28;20036;-81
2022/09/27 06:29:56;;;;;;;0.03;0.03;;;10.30;99.90;;;;;;5051928;28;20071;-81
2022/09/27 06:32:24;;;;;;;0.10;0.10;;;10.10;99.90;;;;;;5067049;28;20075;-82
2022/09/27 06:34:51;;;;;;;0.10;0.10;;;10.20;99.90;;;;;;5049205;28;20500;-81
2022/09/27 06:37:18;;;;;;;0.10;0.10;;;10.30;99.90;;;;;;5066335;28;20284;-81
2022/09/27 06:39:47;;;;;;;0.10;0.10;;;10.10;99.90;;;;;;5064896;28;20032;-82
2022/09/27 06:42:17;;;;;;;0.00;0.00;;;10.20;99.90;;;;;;5070513;28;20056;-81
2022/09/27 06:44:46;;;;;;;0.10;0.10;;;10.20;99.90;;;;;;5048851;28;20562;-81
2022/09/27 06:47:16;;;;;;;0.10;0.10;;;10.10;99.90;;;;;;5052410;28;20037;-82
2022/09/27 06:49:44;;;;;;;0.10;0.10;;;10.30;99.90;;;;;;5051230;28;20080;-81
2022/09/27 06:52:11;;;;;;;0.00;0.00;;;10.30;99.90;;;;;;5066544;28;20052;-81
2022/09/27 06:54:38;;;;;;;0.10;0.10;;;10.30;99.90;;;;;;5063986;28;20044;-82
2022/09/27 06:57:05;;;;;;;0.00;0.00;;;10.30;99.90;;;;;;5048772;28;20050;-82
2022/09/27 07:02:17;;;;;;;0.00;0.00;;;10.40;99.90;;;;;;5068985;28;20037;-83
2022/09/27 07:04:45;;;;;;;0.00;0.00;;;10.40;99.90;;;;;;5068107;28;20044;-82
2022/09/27 07:07:12;;;;;;;0.10;0.10;;;10.40;99.90;;;;;;5049249;28;20041;-82
2022/09/27 07:09:39;;;;;;;0.00;0.00;;;10.40;99.90;;;;;;5063760;28;20516;-81
2022/09/27 07:12:06;;;;;;;0.10;0.10;;;10.40;99.90;;;;;;5066647;28;20390;-83
2022/09/27 07:14:34;;;;;;;0.00;0.00;;;10.30;99.90;;;;;;5069847;28;20041;-82
2022/09/27 07:17:00;;;;;;;0.10;0.10;;;10.30;99.90;;;;;;5047890;28;20527;-82
2022/09/27 07:19:27;;;;;;;0.10;0.10;;;10.40;99.90;;;;;;5065615;28;20068;-82
2022/09/27 07:21:55;;;;;;;0.10;0.10;;;10.40;99.90;;;;;;5046780;28;20134;-82
2022/09/27 07:24:22;;;;;;;0.10;0.10;;;10.40;99.90;;;;;;5050109;28;20107;-81
2022/09/27 07:26:49;;;;;;;0.00;0.00;;;10.50;99.90;;;;;;5065292;28;20107;-82
2022/09/27 07:29:15;;;;;;;0.00;0.00;;;10.50;99.90;;;;;;5068844;28;20036;-81
2022/09/27 07:31:42;;;;;;;0.10;0.10;;;10.60;99.90;;;;;;5047542;28;20049;-81
2022/09/27 07:34:09;;;;;;;0.00;0.00;;;10.60;99.90;;;;;;5049986;28;20036;-81
2022/09/27 07:36:36;;;;;;;0.00;0.00;;;10.50;99.90;;;;;;5073491;28;20039;-81
2022/09/27 07:39:05;;;;;;;0.00;0.00;;;10.70;99.90;;;;;;5069044;28;20049;-82
2022/09/27 07:41:32;;;;;;;0.05;0.05;;;10.60;99.90;;;;;;5048340;28;20061;-82
2022/09/27 07:43:59;;;;;;;0.10;0.10;;;10.60;99.90;;;;;;5046144;28;20475;-81
2022/09/27 07:46:26;;;;;;;0.10;0.10;;;10.50;99.90;;;;;;5068472;28;20488;-81
2022/09/27 07:48:53;;;;;;;0.10;0.10;;;10.60;99.90;;;;;;5065762;28;20128;-81
2022/09/27 07:51:20;;;;;;;0.08;0.08;;;10.80;99.90;;;;;;5045603;28;20075;-82
2022/09/27 07:53:46;;;;;;;0.00;0.00;;;10.90;99.90;;;;;;5052331;28;20032;-83
2022/09/27 07:56:14;;;;;;;0.00;0.00;;;11.10;99.90;;;;;;5049331;28;20488;-81
2022/09/27 07:58:42;;;;;;;0.00;0.00;;;11.20;99.90;;;;;;5069951;28;20071;-83
2022/09/27 08:01:08;;;;;;;0.00;0.00;;;11.30;99.90;;;;;;5063491;28;20045;-83
2022/09/27 08:03:35;;;;;;;0.00;0.00;;;11.20;99.90;;;;;;5064305;28;20048;-82
2022/09/27 08:06:03;;;;;;;0.00;0.00;;;11.20;99.90;;;;;;5064610;28;20515;-81
2022/09/27 08:08:30;;;;;;;0.00;0.00;;;;;;;;;;5049282;28;20045;-82
2022/09/27 08:10:57;;;;;;;0.00;0.00;;;11.20;99.90;;;;;;5065596;28;20067;-82
2022/09/27 08:13:25;;;;;;;0.00;0.00;;;11.40;99.90;;;;;;5069714;28;20041;-83
2022/09/27 08:15:52;;;;;;;0.00;0.00;;;11.40;99.90;;;;;;5069694;28;20055;-82
2022/09/27 08:18:20;;;;;;;0.00;0.00;;;11.40;99.90;;;;;;5068657;28;20111;-82
2022/09/27 08:20:47;;;;;;;0.00;0.00;;;11.50;99.90;;;;;;5053676;28;20049;-82
2022/09/27 08:23:14;;;;;;;0.03;0.03;;;11.50;99.90;;;;;;5074020;28;20101;-82
2022/09/27 08:25:41;;;;;;;0.00;0.00;;;11.40;99.90;;;;;;5066411;28;20419;-81
2022/09/27 08:28:08;;;;;;;0.00;0.00;;;11.50;99.90;;;;;;5065501;28;20032;-82
2022/09/27 08:30:37;;;;;;;0.00;0.00;;;11.40;99.90;;;;;;5052607;28;20048;-82
2022/09/27 08:33:04;;;;;;;0.00;0.00;;;11.30;99.90;;;;;;5046913;28;20036;-82
2022/09/27 08:35:32;;;;;;;0.00;0.00;;;11.30;99.90;;;;;;5061977;28;20041;-80
2022/09/27 08:38:01;;;;;;;0.00;0.00;;;11.40;99.90;;;;;;5066041;28;20035;-81
2022/09/27 08:40:42;;;;;;;0.00;0.00;;;11.50;99.90;;;;;;5054190;28;20041;-82
2022/09/27 08:43:16;;;;;;;0.00;0.00;;;11.70;99.90;;;;;;5061982;28;20040;-82
2022/09/27 08:45:54;;;;;;;0.00;0.00;;;12.30;99.90;;;;;;5070639;28;20033;-82
2022/09/27 08:48:24;;;;;;;0.00;0.00;;;11.90;99.90;;;;;;5044800;28;20041;-82
2022/09/27 08:50:51;;;;;;;0.00;0.00;;;12.10;99.90;;;;;;5072643;28;20053;-82
2022/09/27 08:53:25;;;;;;;0.00;0.00;;;12.30;99.90;;;;;;5072710;28;20472;-83
2022/09/27 08:55:54;;;;;;;0.00;0.00;;;12.10;99.90;;;;;;5066910;28;20074;-81
2022/09/27 08:58:25;;;;;;;0.00;0.00;;;12.20;99.90;;;;;;5050606;28;20037;-82
2022/09/27 09:00:56;;;;;;;0.00;0.00;;;12.40;99.90;;;;;;5062022;28;20056;-82
2022/09/27 09:03:26;;;;;;;0.03;0.03;;;12.30;99.90;;;;;;5065057;28;20029;-82
2022/09/27 09:06:01;;;;;;;;;;;12.30;99.90;;;;;;5050507;28;20044;-82
2022/09/27 09:08:36;;;;;;;0.00;0.00;;;12.40;99.90;;;;;;5062995;28;20372;-82
2022/09/27 09:14:19;;;;;;;0.00;0.00;;;12.50;99.90;;;;;;5069356;28;20049;-82
2022/09/27 09:16:59;;;;;;;0.00;0.00;;;12.60;99.90;;;;;;5068360;28;20044;-83
2022/09/27 09:19:33;;;;;;;;;;;12.70;99.90;;;;;;5051556;28;20127;-83
2022/09/27 09:22:13;;;;;;;0.00;0.00;;;12.80;99.90;;;;;;5062190;28;19934;-83
2022/09/27 09:24:51;;;;;;;0.00;0.00;;;12.60;99.90;;;;;;5052030;28;20173;-83
2022/09/27 09:27:24;;;;;;;0.00;0.00;;;12.70;99.90;;;;;;5051607;28;20059;-82
2022/09/27 09:30:09;;;;;;;0.00;0.00;;;12.40;99.90;;;;;;5065556;28;20063;-82
2022/09/27 09:32:54;;;;;;;0.00;0.00;;;12.50;99.90;;;;;;5067812;28;20059;-83
2022/09/27 09:35:24;;;;;;;0.00;0.00;;;12.40;99.90;;;;;;5047404;28;20127;-82
2022/09/27 09:40:55;;;;;;;0.00;0.00;;;12.40;99.90;;;;;;4987889;28;20137;-80
2022/09/27 09:43:27;;;;;;;0.00;0.00;;;12.30;99.90;;;;;;4989958;28;22237;-80
2022/09/27 09:46:01;;;;;;;0.00;0.00;;;12.30;99.90;;;;;;4991584;28;20056;-79
2022/09/27 09:48:38;;;;;;;0.00;0.00;;;12.30;99.90;;;;;;4992814;28;20074;-78
2022/09/27 09:51:10;;;;;;;0.00;0.00;;;12.40;99.90;;;;;;4992264;28;20281;-79
2022/09/27 09:53:42;;;;;;;0.00;0.00;;;12.20;99.90;;;;;;5003545;28;20514;-78
2022/09/27 09:56:17;;;;;;;0.00;0.00;;;12.40;99.90;;;;;;5005155;28;20043;-79
2022/09/27 09:58:49;;;;;;;0.00;0.00;;;12.10;99.90;;;;;;4992037;28;20499;-79
2022/09/27 10:01:19;;;;;;;0.00;0.00;;;12.00;99.90;;;;;;4995616;28;20557;-78
2022/09/27 10:03:48;;;;;;;;;;;12.10;99.90;;;;;;4988792;28;20053;-78
2022/09/27 10:06:16;;;;;;;0.00;0.00;;;12.20;99.90;;;;;;4986654;28;19959;-77
2022/09/27 10:08:43;;;;;;;0.00;0.00;;;12.20;99.90;;;;;;4988577;28;20026;-80
2022/09/27 10:11:20;;;;;;;0.00;0.00;;;12.10;99.90;;;;;;4986606;28;20120;-78
2022/09/27 10:13:47;;;;;;;0.00;0.00;;;12.10;99.90;;;;;;5004686;28;20046;-78
2022/09/27 10:16:17;;;;;;;0.00;0.00;;;12.00;99.90;;;;;;4989430;28;20034;-78
2022/09/27 10:18:45;;;;;;;;;;;11.90;99.90;;;;;;4988399;28;20139;-78
2022/09/27 10:21:20;;;;;;;0.00;0.00;;;11.90;99.90;;;;;;4988443;28;19926;-80
2022/09/27 10:24:08;;;;;;;0.00;0.00;;;12.00;99.90;;;;;;4989256;28;20038;-78
2022/09/27 10:26:44;;;;;;;0.00;0.00;;;11.80;99.90;;;;;;4986579;28;20050;-79
2022/09/27 10:29:20;;;;;;;0.00;0.00;;;11.70;99.90;;;;;;4989275;28;20045;-78
2022/09/27 10:31:49;;;;;;;0.00;0.00;;;11.70;99.90;;;;;;4987820;28;20542;-78
2022/09/27 10:34:29;;;;;;;0.00;0.00;;;11.70;99.90;;;;;;5002904;28;20108;-78
2022/09/27 10:37:05;;;;;;;;;;;11.80;99.90;;;;;;4992070;28;20392;-78
2022/09/27 10:39:32;;;;;;;0.00;0.00;;;11.80;99.90;;;;;;4989014;28;20297;-79
2022/09/27 10:41:59;;;;;;;0.00;0.00;;;11.90;99.90;;;;;;4989518;28;20043;-78
2022/09/27 10:44:28;;;;;;;0.00;0.00;;;11.90;99.90;;;;;;4989984;28;20041;-79
2022/09/27 10:46:58;;;;;;;0.00;0.00;;;12.00;99.90;;;;;;5004148;28;20054;-78
2022/09/27 10:49:28;;;;;;;0.00;0.00;;;12.10;99.90;;;;;;4990219;28;20049;-78
2022/09/27 10:51:57;;;;;;;0.00;0.00;;;12.20;99.90;;;;;;4989031;28;20422;-79
2022/09/27 10:54:27;;;;;;;0.00;0.00;;;12.30;99.90;;;;;;4985562;28;20046;-79
2022/09/27 10:56:57;;;;;;;0.00;0.00;;;12.40;99.90;;;;;;4983932;28;20521;-79
2022/09/27 10:59:26;;;;;;;0.00;0.00;;;12.30;99.90;;;;;;4988397;28;20514;-80
2022/09/27 11:01:53;;;;;;;0.00;0.00;;;12.30;99.90;;;;;;4998242;28;20295;-78
2022/09/27 11:04:24;;;;;;;0.00;0.00;;;12.50;99.90;;;;;;4987086;28;20046;-78
2022/09/27 11:06:51;;;;;;;0.00;0.00;;;12.60;99.90;;;;;;4984904;28;20047;-79
2022/09/27 11:09:23;;;;;;;0.00;0.00;;;12.90;99.90;;;;;;4987283;28;20042;-78
2022/09/27 11:12:04;;;;;;;0.00;0.00;;;13.10;99.90;;;;;;4986269;28;20046;-79
2022/09/27 11:14:31;;;;;;;0.00;0.00;;;13.20;99.90;;;;;;5002470;28;20077;-79
2022/09/27 11:17:15;;;;;;;0.00;0.00;;;13.40;99.90;;;;;;5002038;28;20050;-78
2022/09/27 11:19:54;;;;;;;0.00;0.00;;;13.60;99.90;;;;;;4987147;28;20048;-79
2022/09/27 11:22:40;;;;;;;0.00;0.00;;;13.60;99.90;;;;;;4987023;28;20038;-79
2022/09/27 11:25:16;;;;;;;0.00;0.00;;;13.70;99.90;;;;;;5003363;28;20101;-79
2022/09/27 11:27:59;;;;;;;0.00;0.00;;;13.90;99.90;;;;;;4991717;28;20044;-79
2022/09/27 11:30:33;;;;;;;0.00;0.00;;;13.90;99.90;;;;;;4988207;28;20030;-78
2022/09/27 11:33:30;;;;;;;0.00;0.00;;;14.00;99.90;;;;;;4987213;28;20418;-78
2022/09/27 11:36:04;;;;;;;0.00;0.00;;;14.20;99.90;;;;;;4987493;28;20080;-79
2022/09/27 11:38:38;;;;;;;0.00;0.00;;;14.20;99.90;;;;;;4982159;28;20035;-79
2022/09/27 11:41:39;;;;;;;0.00;0.00;;;14.20;99.90;;;;;;5000972;28;20057;-78
2022/09/27 11:44:46;;;;;;;0.00;0.00;;;14.40;99.90;;;;;;4987623;28;20081;-79
2022/09/27 11:47:21;;;;;;;0.00;0.00;;;14.40;99.90;;;;;;4953894;28;20057;-79
2022/09/27 11:50:09;;;;;;;0.00;0.00;;;14.80;99.90;;;;;;5002040;28;20042;-79
2022/09/27 11:52:52;;;;;;;0.00;0.00;;;14.90;99.90;;;;;;4985310;28;20054;-79
2022/09/27 11:55:30;;;;;;;0.00;0.00;;;14.90;99.90;;;;;;5003194;28;20046;-79
2022/09/27 11:58:04;;;;;;;0.00;0.00;;;14.80;99.90;;;;;;4995511;28;20043;-79
2022/09/27 12:00:46;;;;;;;0.00;0.00;;;14.50;99.90;;;;;;4986287;28;20042;-79
2022/09/27 12:03:45;;;;;;;0.00;0.00;;;14.40;99.90;;;;;;4983453;28;20517;-79
2022/09/27 12:06:17;;;;;;;0.00;0.00;;;14.00;99.90;;;;;;4995295;28;20053;-79
2022/09/27 12:09:01;;;;;;;0.00;0.00;;;14.00;99.90;;;;;;4983442;28;20042;-79
2022/09/27 12:11:34;;;;;;;0.00;0.00;;;13.80;99.90;;;;;;4982468;28;20058;-79
2022/09/27 12:14:04;;;;;;;0.00;0.00;;;13.60;99.90;;;;;;4986018;28;20052;-77
2022/09/27 12:16:36;;;;;;;0.00;0.00;;;13.60;99.90;;;;;;4984158;28;20056;-79
2022/09/27 12:19:03;;;;;;;0.00;0.00;;;13.50;99.90;;;;;;4983462;28;20414;-79
2022/09/27 12:21:32;;;;;;;0.00;0.00;;;13.20;99.90;;;;;;4985122;28;20031;-80
2022/09/27 12:24:02;;;;;;;0.00;0.00;;;13.00;99.90;;;;;;4999592;28;20050;-79
2022/09/27 12:26:34;;;;;;;0.00;0.00;;;12.80;99.90;;;;;;4983708;28;20035;-80
2022/09/27 12:29:12;;;;;;;0.00;0.00;;;12.50;99.90;;;;;;4985608;28;20042;-78
2022/09/27 12:31:45;;;;;;;0.00;0.00;;;12.40;99.90;;;;;;4983748;28;20471;-78
2022/09/27 12:34:17;;;;;;;0.00;0.00;;;12.10;99.90;;;;;;4982522;28;20077;-78
2022/09/27 12:36:52;;;;;;;0.00;0.00;;;12.00;99.90;;;;;;4982997;28;20128;-79
2022/09/27 12:39:22;;;;;;;0.00;0.00;;;12.10;99.90;;;;;;4983401;28;20109;-79
2022/09/27 12:42:00;;;;;;;0.00;0.00;;;12.10;99.90;;;;;;4989353;28;20060;-80
2022/09/27 12:44:31;;;;;;;0.00;0.00;;;12.20;99.90;;;;;;4982955;28;20334;-79
2022/09/27 12:47:05;;;;;;;0.00;0.00;;;12.20;99.90;;;;;;4986133;28;20053;-80
2022/09/27 12:49:41;;;;;;;0.00;0.00;;;12.50;99.90;;;;;;4992387;28;20036;-80
2022/09/27 12:52:11;;;;;;;0.00;0.00;;;12.60;99.90;;;;;;4986176;28;20048;-79
2022/09/27 12:54:56;;;;;;;0.10;0.10;;;12.80;99.90;;;;;;4987254;28;20046;-78
2022/09/27 12:57:33;;;;;;;0.00;0.00;;;12.80;99.90;;;;;;4989547;28;20046;-78
2022/09/27 13:00:07;;;;;;;0.00;0.00;;;12.90;99.90;;;;;;4987506;28;20038;-78
2022/09/27 13:03:13;;;;;;;0.00;0.00;;;13.00;99.90;;;;;;4994632;28;20070;-80
2022/09/27 13:06:15;;;;;;;0.00;0.00;;;12.90;99.90;;;;;;4986535;28;20414;-79
2022/09/27 13:09:20;;;;;;;0.00;0.00;;;12.60;99.90;;;;;;4999789;28;20406;-80
2022/09/27 13:11:55;;;;;;;0.00;0.00;;;12.60;99.90;;;;;;5003024;28;20304;-80
2022/09/27 13:14:26;;;;;;;0.00;0.00;;;12.80;99.90;;;;;;4995621;28;20506;-79
2022/09/27 13:16:53;;;;;;;0.00;0.00;;;13.00;99.90;;;;;;4987398;28;20039;-84
2022/09/27 13:19:48;;;;;;;0.00;0.00;;;13.10;99.90;;;;;;4986961;28;20035;-80
2022/09/27 13:22:38;;;;;;;0.00;0.00;;;13.40;99.90;;;;;;4969155;28;20506;-80
2022/09/27 13:25:38;;;;;;;0.00;0.00;;;13.80;99.90;;;;;;4989084;28;20100;-79